createdAt,value
2023-03-10T00:01:11.229Z,93438.56
2023-03-10T00:03:38.876Z,93438.34
2023-03-10T00:06:07.326Z,93425.50
2023-03-10T00:08:36.464Z,93427.09
2023-03-10T00:11:04.343Z,93411.47
2023-03-10T00:13:32.001Z,93412.28
2023-03-10T00:15:59.846Z,93418.50
2023-03-10T00:18:27.620Z,93404.44
2023-03-10T00:20:55.861Z,93399.22
2023-03-10T00:23:23.983Z,93391.41
2023-03-10T00:26:00.648Z,93380.16
2023-03-10T00:28:28.811Z,93385.38
2023-03-10T00:31:01.252Z,93386.19
2023-03-10T00:33:29.217Z,93387.19
2023-03-10T00:36:07.496Z,93388.00
2023-03-10T00:38:35.532Z,93381.19
2023-03-10T00:41:07.172Z,93378.56
2023-03-10T00:43:35.940Z,93379.50
2023-03-10T00:46:03.953Z,93366.34
2023-03-10T00:48:32.543Z,93364.69
2023-03-10T00:51:01.221Z,93363.72
2023-03-10T00:53:29.658Z,93355.22
2023-03-10T00:56:02.471Z,93359.47
2023-03-10T00:58:32.884Z,93353.28
2023-03-10T01:01:01.556Z,93338.44
2023-03-10T01:03:30.754Z,93334.38
2023-03-10T01:05:58.471Z,93328.38
2023-03-10T01:08:26.085Z,93323.94
2023-03-10T01:10:53.745Z,93321.19
2023-03-10T01:13:21.480Z,93314.19
2023-03-10T01:15:51.079Z,93308.97
2023-03-10T01:18:21.148Z,93302.28
2023-03-10T01:20:49.541Z,93297.84
2023-03-10T01:23:20.630Z,93290.84
2023-03-10T01:25:48.947Z,93284.03
2023-03-10T01:28:17.636Z,93275.41
2023-03-10T01:30:46.022Z,93270.19
2023-03-10T01:33:16.070Z,93269.16
2023-03-10T01:35:44.286Z,93269.16
2023-03-10T01:38:12.106Z,93256.13
2023-03-10T01:40:40.155Z,93250.13
2023-03-10T01:43:28.316Z,93250.13
2023-03-10T01:46:42.580Z,93245.69
2023-03-10T01:49:25.424Z,93233.66
2023-03-10T01:51:59.385Z,93224.03
2023-03-10T01:54:31.783Z,93224.03
2023-03-10T01:56:59.953Z,93223.03
2023-03-10T01:59:28.693Z,93215.41
2023-03-10T02:01:57.843Z,93207.59
2023-03-10T02:04:34.637Z,93198.75
2023-03-10T02:07:05.185Z,93197.16
2023-03-10T02:09:38.189Z,93192.75
2023-03-10T02:12:08.537Z,93186.72
2023-03-10T02:14:36.621Z,93178.91
2023-03-10T02:17:05.761Z,93187.53
2023-03-10T02:19:48.953Z,93173.69
2023-03-10T02:22:17.272Z,93164.84
2023-03-10T02:24:51.076Z,93162.44
2023-03-10T02:27:22.852Z,93168.47
2023-03-10T02:29:59.683Z,93158.03
2023-03-10T02:32:29.625Z,93159.84
2023-03-10T02:34:57.528Z,93151.03
2023-03-10T02:37:28.284Z,93145.19
2023-03-10T02:39:55.942Z,93144.19
2023-03-10T02:42:27.967Z,93132.94
2023-03-10T02:44:56.549Z,93125.13
2023-03-10T02:47:24.373Z,93127.72
2023-03-10T02:49:52.007Z,93121.72
2023-03-10T02:52:28.995Z,93118.31
2023-03-10T02:54:56.583Z,93117.13
2023-03-10T02:57:25.496Z,93113.09
2023-03-10T02:59:53.133Z,93111.28
2023-03-10T03:02:20.766Z,93114.91
2023-03-10T03:04:48.356Z,93104.47
2023-03-10T03:07:16.035Z,93113.09
2023-03-10T03:09:43.641Z,93113.09
2023-03-10T03:12:11.224Z,93113.09
2023-03-10T03:14:40.208Z,93112.28
2023-03-10T03:17:07.803Z,93095.81
2023-03-10T03:19:35.398Z,93108.06
2023-03-10T03:22:03.034Z,93099.25
2023-03-10T03:24:32.059Z,93096.63
2023-03-10T03:26:59.975Z,93088.81
2023-03-10T03:29:27.602Z,93104.47
2023-03-10T03:31:56.627Z,93099.25
2023-03-10T03:34:24.204Z,93101.84
2023-03-10T03:36:52.088Z,93095.81
2023-03-10T03:39:19.679Z,93098.44
2023-03-10T03:41:48.463Z,93105.06
2023-03-10T03:44:16.054Z,93111.28
2023-03-10T03:46:43.635Z,93111.28
2023-03-10T03:49:12.541Z,93119.91
2023-03-10T03:51:40.294Z,93120.72
2023-03-10T03:54:07.930Z,93143.56
2023-03-10T03:56:35.542Z,93140.75
2023-03-10T03:59:03.178Z,93143.38
2023-03-10T04:01:30.781Z,93155.63
2023-03-10T04:03:58.378Z,93198.34
2023-03-10T04:06:27.534Z,93206.97
2023-03-10T04:08:55.137Z,93197.34
2023-03-10T04:11:22.714Z,93199.31
2023-03-10T04:13:50.350Z,93201.75
2023-03-10T04:16:17.946Z,93214.81
2023-03-10T04:18:45.750Z,93207.97
2023-03-10T04:21:13.538Z,93204.53
2023-03-10T04:23:43.743Z,93211.38
2023-03-10T04:26:11.897Z,93219.22
2023-03-10T04:28:39.523Z,93203.56
2023-03-10T04:31:14.097Z,93197.53
2023-03-10T04:33:41.748Z,93205.34
2023-03-10T04:36:09.694Z,93197.53
2023-03-10T04:38:37.602Z,93199.31
2023-03-10T04:41:06.820Z,93194.94
2023-03-10T04:43:34.471Z,93204.53
2023-03-10T04:46:02.535Z,93202.75
2023-03-10T04:48:30.435Z,93201.16
2023-03-10T04:50:58.611Z,93197.53
2023-03-10T04:53:26.293Z,93203.75
2023-03-10T04:55:54.080Z,93206.38
2023-03-10T04:58:24.193Z,93200.94
2023-03-10T05:01:02.507Z,93194.94
2023-03-10T05:03:31.002Z,93199.31
2023-03-10T05:05:59.087Z,93200.13
2023-03-10T05:08:26.842Z,93203.34
2023-03-10T05:10:54.468Z,93201.56
2023-03-10T05:13:23.459Z,93197.97
2023-03-10T05:15:51.110Z,93197.97
2023-03-10T05:18:19.571Z,93201.56
2023-03-10T05:20:53.600Z,93202.03
2023-03-10T05:23:21.285Z,93195.16
2023-03-10T05:25:49.087Z,93212.47
2023-03-10T05:28:17.234Z,93208.03
2023-03-10T05:30:46.294Z,93198.41
2023-03-10T05:33:13.888Z,93209.66
2023-03-10T05:35:41.674Z,93218.28
2023-03-10T05:38:09.305Z,93207.84
2023-03-10T05:40:37.028Z,93214.88
2023-03-10T05:43:04.614Z,93214.06
2023-03-10T05:45:32.210Z,93210.63
2023-03-10T05:48:01.528Z,93203.63
2023-03-10T05:50:29.495Z,93203.63
2023-03-10T05:52:57.305Z,93207.03
2023-03-10T05:55:25.115Z,93197.59
2023-03-10T05:57:52.808Z,93183.78
2023-03-10T06:00:21.323Z,93168.91
2023-03-10T06:02:49.030Z,93175.94
2023-03-10T06:05:18.167Z,93168.91
2023-03-10T06:07:45.778Z,93169.91
2023-03-10T06:10:13.432Z,93173.34
2023-03-10T06:12:41.093Z,93163.69
2023-03-10T06:15:09.715Z,93168.13
2023-03-10T06:17:37.333Z,93172.31
2023-03-10T06:20:05.627Z,93157.47
2023-03-10T06:22:34.552Z,93157.47
2023-03-10T06:25:02.285Z,93165.31
2023-03-10T06:27:30.908Z,93133.00
2023-03-10T06:29:58.522Z,93138.22
2023-03-10T06:32:26.524Z,93126.78
2023-03-10T06:34:54.151Z,93136.22
2023-03-10T06:37:21.958Z,93126.78
2023-03-10T06:39:50.986Z,93116.34
2023-03-10T06:42:18.547Z,93128.38
2023-03-10T06:44:49.115Z,93125.59
2023-03-10T06:47:16.876Z,93137.81
2023-03-10T06:49:44.470Z,93145.44
2023-03-10T06:52:12.061Z,93132.41
2023-03-10T06:54:39.704Z,93127.19
2023-03-10T06:57:08.686Z,93119.38
2023-03-10T06:59:36.299Z,93097.91
2023-03-10T07:02:03.970Z,93091.69
2023-03-10T07:04:31.587Z,93082.25
2023-03-10T07:06:59.278Z,93075.22
2023-03-10T07:09:26.961Z,93071.81
2023-03-10T07:11:54.522Z,93077.03
2023-03-10T07:14:23.484Z,93078.81
2023-03-10T07:16:51.192Z,93069.19
2023-03-10T07:19:18.792Z,93081.44
2023-03-10T07:21:46.418Z,93086.66
2023-03-10T07:24:14.063Z,93086.47
2023-03-10T07:26:41.747Z,93091.88
2023-03-10T07:29:09.580Z,93097.09
2023-03-10T07:31:38.547Z,93100.50
2023-03-10T07:34:06.108Z,93099.69
2023-03-10T07:36:33.767Z,93105.72
2023-03-10T07:39:01.322Z,93097.09
2023-03-10T07:41:29.030Z,93085.88
2023-03-10T07:43:57.031Z,93086.66
2023-03-10T07:46:24.718Z,93091.09
2023-03-10T07:48:53.870Z,93088.47
2023-03-10T07:51:21.555Z,93092.88
2023-03-10T07:53:49.170Z,93079.84
2023-03-10T07:56:17.160Z,93083.25
2023-03-10T07:58:44.902Z,93088.47
2023-03-10T08:01:16.985Z,93077.22
2023-03-10T08:03:44.889Z,93076.22
2023-03-10T08:06:19.580Z,93066.81
2023-03-10T08:08:47.586Z,93060.78
2023-03-10T08:11:15.271Z,93065.00
2023-03-10T08:13:45.303Z,93054.56
2023-03-10T08:16:13.184Z,93057.19
2023-03-10T08:18:40.817Z,93050.13
2023-03-10T08:21:09.056Z,93046.75
2023-03-10T08:23:39.375Z,93047.53
2023-03-10T08:26:09.174Z,93050.13
2023-03-10T08:28:38.897Z,93043.31
2023-03-10T08:31:11.189Z,93044.91
2023-03-10T08:33:39.883Z,93041.31
2023-03-10T08:36:09.815Z,93038.91
2023-03-10T08:38:38.979Z,93042.13
2023-03-10T08:41:11.666Z,93041.31
2023-03-10T08:43:40.157Z,93036.91
2023-03-10T08:46:09.043Z,93019.47
2023-03-10T08:48:37.045Z,93026.47
2023-03-10T08:51:05.379Z,93033.50
2023-03-10T08:53:33.964Z,93038.72
2023-03-10T08:56:03.064Z,93036.91
2023-03-10T08:58:30.723Z,93037.91
2023-03-10T09:00:58.469Z,93042.13
2023-03-10T09:03:29.503Z,93049.94
2023-03-10T09:05:58.918Z,93057.78
2023-03-10T09:08:27.794Z,93044.91
2023-03-10T09:10:56.470Z,93047.34
2023-03-10T09:13:25.498Z,93046.53
2023-03-10T09:15:53.374Z,93046.53
2023-03-10T09:18:21.631Z,93042.13
2023-03-10T09:20:49.540Z,93036.91
2023-03-10T09:23:17.998Z,93039.69
2023-03-10T09:25:45.690Z,93051.75
2023-03-10T09:28:13.348Z,93046.53
2023-03-10T09:30:43.288Z,93050.75
2023-03-10T09:33:17.133Z,93042.13
2023-03-10T09:35:52.837Z,93043.13
2023-03-10T09:38:25.461Z,93049.16
2023-03-10T09:41:11.593Z,93058.78
2023-03-10T09:43:42.112Z,93052.75
2023-03-10T09:46:21.421Z,93052.75
2023-03-10T09:48:54.159Z,93063.19
2023-03-10T09:51:24.032Z,93067.41
2023-03-10T09:54:01.430Z,93062.19
2023-03-10T09:56:33.240Z,93067.41
2023-03-10T09:59:07.394Z,93088.06
2023-03-10T10:01:37.487Z,93087.47
2023-03-10T10:04:10.623Z,93102.94
2023-03-10T10:06:42.305Z,93103.91
2023-03-10T10:09:18.243Z,93111.53
2023-03-10T10:11:45.885Z,93115.97
2023-03-10T10:14:27.757Z,93144.66
2023-03-10T10:17:03.803Z,93142.06
2023-03-10T10:19:33.798Z,93142.84
2023-03-10T10:22:08.566Z,93167.13
2023-03-10T10:24:36.201Z,93178.38
2023-03-10T10:27:03.828Z,93189.78
2023-03-10T10:29:37.060Z,93204.44
2023-03-10T10:32:11.645Z,93208.84
2023-03-10T10:34:40.900Z,93219.28
2023-03-10T10:37:29.782Z,93213.25
2023-03-10T10:39:58.942Z,93221.91
2023-03-10T10:42:28.234Z,93197.63
2023-03-10T10:44:57.873Z,93173.34
2023-03-10T10:47:30.194Z,93189.78
2023-03-10T10:50:18.440Z,93181.97
2023-03-10T10:52:48.900Z,93167.13
2023-03-10T10:55:29.737Z,93155.09
2023-03-10T10:58:01.487Z,93157.72
2023-03-10T11:00:33.137Z,93136.03
2023-03-10T11:03:02.393Z,93141.25
2023-03-10T11:05:34.337Z,93142.06
2023-03-10T11:08:18.932Z,93135.81
2023-03-10T11:10:54.286Z,93142.84
2023-03-10T11:13:27.638Z,93112.56
2023-03-10T11:16:02.593Z,93111.53
2023-03-10T11:18:37.526Z,93112.56
2023-03-10T11:21:13.102Z,93101.31
2023-03-10T11:23:46.398Z,93100.31
2023-03-10T11:26:24.771Z,93100.31
2023-03-10T11:28:57.865Z,93099.50
2023-03-10T11:31:37.329Z,93086.47
2023-03-10T11:34:19.643Z,93079.47
2023-03-10T11:36:56.577Z,93084.69
2023-03-10T11:39:34.979Z,93073.44
2023-03-10T11:42:12.101Z,93071.63
2023-03-10T11:44:44.053Z,93064.59
2023-03-10T11:47:21.796Z,93069.81
2023-03-10T11:49:59.383Z,93061.19
2023-03-10T11:52:29.515Z,93060.19
2023-03-10T11:55:05.692Z,93069.81
2023-03-10T11:57:40.599Z,93047.34
2023-03-10T12:00:19.440Z,93045.56
2023-03-10T12:02:57.982Z,93047.94
2023-03-10T12:05:27.989Z,93042.94
2023-03-10T12:08:01.538Z,93047.13
2023-03-10T12:10:31.357Z,93043.72
2023-03-10T12:13:00.790Z,93031.50
2023-03-10T12:15:36.032Z,93025.47
2023-03-10T12:18:05.324Z,93024.47
2023-03-10T12:20:35.466Z,93027.09
2023-03-10T12:23:40.526Z,93030.69
2023-03-10T12:26:08.645Z,93036.72
2023-03-10T12:28:36.393Z,93048.75
2023-03-10T12:31:06.406Z,93042.72
2023-03-10T12:34:09.041Z,93035.91
2023-03-10T12:36:40.443Z,93033.09
2023-03-10T12:39:33.001Z,93021.88
2023-03-10T12:42:02.530Z,93047.94
2023-03-10T12:44:37.867Z,93040.94
2023-03-10T12:47:30.475Z,93036.72
2023-03-10T12:50:04.261Z,93047.94
2023-03-10T12:52:48.045Z,93038.31
2023-03-10T12:55:19.000Z,93053.97
2023-03-10T12:57:55.101Z,93050.34
2023-03-10T13:00:31.532Z,93048.56
2023-03-10T13:03:05.088Z,93047.75
2023-03-10T13:05:35.287Z,93035.50
2023-03-10T13:08:14.486Z,93049.16
2023-03-10T13:10:42.586Z,93041.53
2023-03-10T13:13:17.904Z,93056.16
2023-03-10T13:15:57.768Z,93056.97
2023-03-10T13:18:25.417Z,93044.75
2023-03-10T13:20:53.070Z,93048.16
2023-03-10T13:23:24.957Z,93056.78
2023-03-10T13:25:57.540Z,93066.44
2023-03-10T13:28:26.582Z,93058.59
2023-03-10T13:31:19.246Z,93076.84
2023-03-10T13:33:53.669Z,93062.00
2023-03-10T13:36:24.059Z,93058.59
2023-03-10T13:38:53.257Z,93073.44
2023-03-10T13:41:20.868Z,93081.25
2023-03-10T13:43:49.816Z,93087.28
2023-03-10T13:46:20.095Z,93078.66
2023-03-10T13:48:48.738Z,93081.25
2023-03-10T13:51:19.734Z,93091.69
2023-03-10T13:53:49.810Z,93083.88
2023-03-10T13:56:24.211Z,93083.88
2023-03-10T13:58:54.147Z,93086.66
2023-03-10T14:01:24.949Z,93090.88
2023-03-10T14:03:54.829Z,93102.13
2023-03-10T14:06:22.882Z,93095.28
2023-03-10T14:08:51.379Z,93098.72
2023-03-10T14:11:33.559Z,93098.72
2023-03-10T14:14:02.268Z,93096.09
2023-03-10T14:16:53.074Z,93097.91
2023-03-10T14:19:51.723Z,93102.94
2023-03-10T14:22:24.209Z,93099.53
2023-03-10T14:24:51.994Z,93112.56
2023-03-10T14:27:21.424Z,93128.22
2023-03-10T14:29:51.180Z,93105.56
2023-03-10T14:32:19.470Z,93097.91
2023-03-10T14:34:47.471Z,93105.72
2023-03-10T14:37:15.517Z,93104.75
2023-03-10T14:39:43.124Z,93103.72
2023-03-10T14:42:20.081Z,93094.31
2023-03-10T14:44:50.329Z,93088.06
2023-03-10T14:47:18.908Z,93087.28
2023-03-10T14:49:47.173Z,93085.47
2023-03-10T14:52:17.170Z,93079.47
2023-03-10T14:54:45.083Z,93088.06
2023-03-10T14:57:15.933Z,93089.69
2023-03-10T14:59:43.569Z,93093.28
2023-03-10T15:02:19.778Z,93108.16
2023-03-10T15:04:47.445Z,93120.19
2023-03-10T15:07:15.664Z,93134.03
2023-03-10T15:09:43.311Z,93131.63
2023-03-10T15:12:11.203Z,93132.41
2023-03-10T15:14:38.811Z,93135.84
2023-03-10T15:17:06.479Z,93147.28
2023-03-10T15:19:35.878Z,93126.41
2023-03-10T15:22:03.453Z,93122.00
2023-03-10T15:24:31.052Z,93130.81
2023-03-10T15:26:58.686Z,93131.63
2023-03-10T15:29:26.269Z,93134.25
2023-03-10T15:31:53.923Z,93137.84
2023-03-10T15:34:21.504Z,93134.25
2023-03-10T15:36:50.733Z,93134.25
2023-03-10T15:39:30.660Z,93138.44
2023-03-10T15:41:58.986Z,93154.91
2023-03-10T15:44:26.926Z,93151.50
2023-03-10T15:46:55.860Z,93150.69
2023-03-10T15:49:23.974Z,93154.91
2023-03-10T15:51:52.947Z,93161.94
2023-03-10T15:54:20.565Z,93148.88
2023-03-10T15:56:48.182Z,93142.84
2023-03-10T15:59:16.115Z,93139.47
2023-03-10T16:01:43.776Z,93149.09
2023-03-10T16:04:11.474Z,93161.94
2023-03-10T16:06:39.064Z,93157.72
2023-03-10T16:09:09.189Z,93153.28
2023-03-10T16:11:36.923Z,93159.53
2023-03-10T16:14:04.999Z,93161.13
2023-03-10T16:16:32.772Z,93152.50
2023-03-10T16:19:00.393Z,93156.72
2023-03-10T16:21:28.266Z,93160.13
2023-03-10T16:23:55.985Z,93172.16
2023-03-10T16:26:25.696Z,93179.97
2023-03-10T16:28:55.296Z,93164.53
2023-03-10T16:31:24.559Z,93168.75
2023-03-10T16:33:52.306Z,93161.94
2023-03-10T16:36:22.112Z,93179.38
2023-03-10T16:38:50.434Z,93195.03
2023-03-10T16:41:18.666Z,93195.03
2023-03-10T16:43:47.842Z,93202.84
2023-03-10T16:46:20.057Z,93215.91
2023-03-10T16:48:49.142Z,93203.88
2023-03-10T16:51:24.138Z,93207.28
2023-03-10T16:53:52.692Z,93222.94
2023-03-10T16:56:20.637Z,93229.16
2023-03-10T16:58:49.645Z,93229.16
2023-03-10T17:01:17.274Z,93240.38
2023-03-10T17:03:44.931Z,93225.72
2023-03-10T17:06:14.324Z,93213.50
2023-03-10T17:08:42.678Z,93212.69
2023-03-10T17:11:18.843Z,93219.69
2023-03-10T17:13:47.374Z,93221.31
2023-03-10T17:16:17.248Z,93219.69
2023-03-10T17:18:45.447Z,93231.75
2023-03-10T17:21:15.656Z,93243.81
2023-03-10T17:23:44.039Z,93229.16
2023-03-10T17:26:12.418Z,93256.03
2023-03-10T17:28:41.434Z,93270.88
2023-03-10T17:31:10.319Z,93270.88
2023-03-10T17:33:39.936Z,93293.38
2023-03-10T17:36:10.864Z,93293.56
2023-03-10T17:38:38.901Z,93310.63
2023-03-10T17:41:08.079Z,93277.72
2023-03-10T17:43:36.064Z,93294.16
2023-03-10T17:46:06.163Z,93320.25
2023-03-10T17:48:35.349Z,93308.00
2023-03-10T17:51:04.807Z,93324.69
2023-03-10T17:53:32.923Z,93326.28
2023-03-10T17:56:04.203Z,93332.31
2023-03-10T17:58:31.881Z,93331.50
2023-03-10T18:00:59.463Z,93341.13
2023-03-10T18:03:27.215Z,93355.78
2023-03-10T18:05:54.798Z,93348.94
2023-03-10T18:08:23.852Z,93344.53
2023-03-10T18:11:00.874Z,93349.75
2023-03-10T18:13:28.537Z,93346.16
2023-03-10T18:15:56.349Z,93339.13
2023-03-10T18:18:24.883Z,93340.13
2023-03-10T18:20:52.554Z,93341.94
2023-03-10T18:23:23.154Z,93354.00
2023-03-10T18:25:51.716Z,93351.56
2023-03-10T18:28:20.696Z,93330.50
2023-03-10T18:30:51.895Z,93345.34
2023-03-10T18:33:19.911Z,93345.34
2023-03-10T18:35:48.702Z,93344.53
2023-03-10T18:38:17.999Z,93343.56
2023-03-10T18:40:46.932Z,93354.78
2023-03-10T18:43:14.520Z,93340.94
2023-03-10T18:45:43.985Z,93343.56
2023-03-10T18:48:11.586Z,93354.00
2023-03-10T18:50:39.150Z,93335.72
2023-03-10T18:53:06.739Z,93328.69
2023-03-10T18:55:34.304Z,93342.75
2023-03-10T18:58:03.350Z,93366.22
2023-03-10T19:00:30.954Z,93386.06
2023-03-10T19:02:58.574Z,93378.25
2023-03-10T19:05:26.444Z,93385.28
2023-03-10T19:07:54.064Z,93374.84
2023-03-10T19:10:22.280Z,93362.59
2023-03-10T19:12:49.955Z,93350.56
2023-03-10T19:15:19.013Z,93339.13
2023-03-10T19:17:46.751Z,93309.63
2023-03-10T19:20:15.977Z,93311.44
2023-03-10T19:22:45.317Z,93334.09
2023-03-10T19:25:13.033Z,93329.91
2023-03-10T19:27:40.756Z,93347.97
2023-03-10T19:30:12.024Z,93347.97
2023-03-10T19:32:41.415Z,93354.78
2023-03-10T19:35:09.804Z,93350.56
2023-03-10T19:37:38.908Z,93338.13
2023-03-10T19:40:08.580Z,93324.28
2023-03-10T19:42:38.833Z,93306.00
2023-03-10T19:45:08.198Z,93330.41
2023-03-10T19:47:35.794Z,93319.25
2023-03-10T19:50:05.902Z,93316.44
2023-03-10T19:52:33.626Z,93305.97
2023-03-10T19:55:01.714Z,93319.94
2023-03-10T19:57:30.082Z,93316.69
2023-03-10T19:59:58.223Z,93319.47
2023-03-10T20:02:26.218Z,93325.03
2023-03-10T20:04:53.988Z,93314.59
2023-03-10T20:07:22.917Z,93336.00
2023-03-10T20:09:50.536Z,93341.97
2023-03-10T20:12:18.142Z,93346.38
2023-03-10T20:14:45.703Z,93332.53
2023-03-10T20:17:13.250Z,93338.16
2023-03-10T20:19:41.367Z,93347.75
2023-03-10T20:22:08.986Z,93318.28
2023-03-10T20:24:37.919Z,93308.41
2023-03-10T20:27:05.780Z,93338.88
2023-03-10T20:29:33.630Z,93311.00
2023-03-10T20:32:01.358Z,93323.25
2023-03-10T20:34:28.981Z,93332.88
2023-03-10T20:36:56.611Z,93334.06
2023-03-10T20:39:25.256Z,93322.81
2023-03-10T20:41:54.193Z,93352.69
2023-03-10T20:44:21.764Z,93340.63
2023-03-10T20:46:49.406Z,93355.50
2023-03-10T20:49:17.047Z,93339.66
2023-03-10T20:51:44.634Z,93339.84
2023-03-10T20:54:12.287Z,93363.31
2023-03-10T20:56:40.022Z,93350.66
2023-03-10T20:59:09.016Z,93362.69
2023-03-10T21:01:39.778Z,93378.34
2023-03-10T21:04:07.658Z,93374.91
2023-03-10T21:06:35.865Z,93386.72
2023-03-10T21:09:05.850Z,93384.53
2023-03-10T21:11:34.166Z,93397.78
2023-03-10T21:14:01.837Z,93408.75
2023-03-10T21:16:30.967Z,93423.78
2023-03-10T21:18:58.657Z,93422.78
2023-03-10T21:21:26.235Z,93417.13
2023-03-10T21:23:53.884Z,93430.19
2023-03-10T21:26:22.363Z,93430.38
2023-03-10T21:28:50.233Z,93455.00
2023-03-10T21:31:18.191Z,93473.25
2023-03-10T21:33:47.258Z,93500.09
2023-03-10T21:36:16.238Z,93479.31
2023-03-10T21:38:43.964Z,93498.28
2023-03-10T21:41:13.196Z,93513.66
2023-03-10T21:43:40.806Z,93533.44
2023-03-10T21:46:08.479Z,93531.00
2023-03-10T21:48:36.144Z,93548.44
2023-03-10T21:51:06.168Z,93548.19
2023-03-10T21:53:33.813Z,93556.34
2023-03-10T21:56:01.431Z,93552.94
2023-03-10T21:58:29.031Z,93559.78
2023-03-10T22:00:56.907Z,93559.50
2023-03-10T22:03:24.531Z,93552.69
2023-03-10T22:05:52.146Z,93567.16
2023-03-10T22:08:21.898Z,93553.31
2023-03-10T22:10:49.605Z,93570.53
2023-03-10T22:13:17.252Z,93571.34
2023-03-10T22:15:44.985Z,93581.78
2023-03-10T22:18:12.614Z,93586.88
2023-03-10T22:20:40.253Z,93574.41
2023-03-10T22:23:07.940Z,93577.28
2023-03-10T22:25:37.128Z,93581.22
2023-03-10T22:28:05.383Z,93602.22
2023-03-10T22:30:33.003Z,93597.78
2023-03-10T22:33:00.702Z,93615.75
2023-03-10T22:35:28.332Z,93598.19
2023-03-10T22:37:56.001Z,93617.34
2023-03-10T22:40:25.412Z,93635.84
2023-03-10T22:42:55.500Z,93638.72
2023-03-10T22:45:25.321Z,93646.53
2023-03-10T22:47:54.945Z,93644.75
2023-03-10T22:50:25.611Z,93636.94
2023-03-10T22:52:53.412Z,93654.19
2023-03-10T22:55:23.552Z,93650.94
2023-03-10T22:57:51.189Z,93671.81
2023-03-10T23:00:22.586Z,93691.88
2023-03-10T23:02:52.140Z,93670.38
2023-03-10T23:05:20.347Z,93693.06
2023-03-10T23:07:48.947Z,93712.13
2023-03-10T23:10:20.693Z,93704.50
2023-03-10T23:12:49.190Z,93722.94
2023-03-10T23:15:24.870Z,93718.53
2023-03-10T23:17:55.641Z,93739.56
2023-03-10T23:20:26.810Z,93764.06
2023-03-10T23:22:55.617Z,93738.94
2023-03-10T23:25:29.124Z,93753.78
2023-03-10T23:27:57.192Z,93768.66
2023-03-10T23:30:24.913Z,93780.88
2023-03-10T23:32:54.395Z,93771.41
2023-03-10T23:35:24.196Z,93769.94
2023-03-10T23:37:52.484Z,93763.13
2023-03-10T23:40:22.074Z,93774.53
2023-03-10T23:42:49.938Z,93776.34
2023-03-10T23:45:19.292Z,93764.28
2023-03-10T23:47:47.575Z,93779.94
2023-03-10T23:50:19.455Z,93796.56
2023-03-10T23:52:47.949Z,93804.38
2023-03-10T23:55:17.881Z,93805.41
2023-03-10T23:57:45.723Z,93813.22
